Data for 07/10/2018

Time Sea-Level Adjusted Pressure Absolute Pressure Temperature Relative Humidity Dew Point   
(mb) (inHg) (mb) (inHg) (C) (F) (%) (C) (F)
00:05 1020 30.12 850 25.1 22.5 72.5 43 9.4 48.8
00:10 1020 30.12 850 25.1 22.5 72.5 43 9.5 49.1
00:15 1020 30.12 850 25.1 22.3 72.1 44 9.6 49.3
00:20 1020 30.12 850 25.1 22.1 71.8 44 9.5 49.1
00:25 1020 30.12 850 25.1 22.1 71.8 43 9.1 48.5
00:30 1020 30.12 850 25.1 22.2 72 43 9.1 48.4
00:35 1020 30.12 850 25.1 22.2 71.9 42 9 48.2
00:40 1021 30.15 850 25.1 22.4 72.3 41 8.7 47.7
00:45 1021 30.15 850 25.1 22.5 72.4 42 8.9 48.1
00:50 1021 30.15 850 25.1 22.5 72.5 40 8.5 47.3
00:55 1021 30.15 850 25.1 22.6 72.7 40 8.6 47.5
01:00 1020 30.12 850 25.1 22.6 72.6 41 9 48.2
01:05 1020 30.12 850 25.1 22.3 72.1 42 8.8 47.8
01:10 1020 30.12 850 25.1 22.3 72.2 42 8.9 48.1
01:15 1020 30.12 850 25.1 22.3 72.2 42 8.9 48
01:20 1020 30.12 850 25.1 22.1 71.7 43 9.1 48.3
01:25 1020 30.12 850 25.1 21.8 71.2 44 9.1 48.4
01:30 1020 30.12 850 25.1 21.6 70.9 46 9.6 49.3
01:35 1020 30.12 850 25.1 21.3 70.4 47 9.7 49.5
01:40 1020 30.12 850 25.1 21.2 70.1 48 9.8 49.6
01:45 1020 30.12 850 25.1 21.2 70.2 47 9.6 49.3
01:50 1020 30.12 850 25.1 21.2 70.2 47 9.5 49.1
01:55 1020 30.12 850 25.1 21.3 70.4 45 9.2 48.5
02:00 1020 30.12 850 25.1 21.5 70.7 45 9.3 48.8
02:05 1020 30.12 850 25.1 21.3 70.4 46 9.5 49.1
02:10 1020 30.12 850 25.1 21.2 70.1 46 9.3 48.8
02:15 1020 30.12 850 25.1 21 69.8 48 9.6 49.3
02:20 1020 30.12 850 25.1 20.5 68.8 52 10.3 50.6
02:25 1020 30.12 849 25.07 20.2 68.4 50 9.6 49.3
02:30 1020 30.12 850 25.1 20.1 68.2 52 10.1 50.1
02:35 1020 30.12 850 25.1 19.9 67.7 50 9.4 48.9
02:40 1020 30.12 850 25.1 20.1 68.2 48 8.9 48.1
02:45 1020 30.12 850 25.1 20.4 68.7 49 9.6 49.2
02:50 1020 30.12 849 25.07 20.4 68.7 49 9.5 49.1
02:55 1020 30.12 849 25.07 20.2 68.4 51 9.9 49.9
03:00 1020 30.12 849 25.07 20 68 51 9.6 49.3
03:05 1020 30.12 849 25.07 20.2 68.3 49 9.3 48.7
03:10 1020 30.12 849 25.07 20.3 68.5 49 9.4 48.9
03:15 1020 30.12 849 25.07 20.3 68.5 48 9.1 48.3
03:20 1020 30.12 849 25.07 20.4 68.8 50 9.8 49.6
03:25 1020 30.12 849 25.07 20 68.1 51 9.8 49.6
03:30 1020 30.12 849 25.07 19.8 67.7 52 9.7 49.5
03:35 1020 30.12 849 25.07 19.8 67.6 51 9.4 49
03:40 1020 30.12 849 25.07 19.9 67.8 50 9.4 48.9
03:45 1020 30.12 849 25.07 20 68 49 9.2 48.5
03:50 1020 30.12 849 25.07 20.3 68.6 48 9.1 48.4
03:55 1020 30.12 849 25.07 20.5 68.9 47 9 48.1
04:00 1020 30.12 849 25.07 20.7 69.2 47 9.2 48.6
04:05 1020 30.12 849 25.07 20.5 69 48 9.4 48.9
04:10 1020 30.12 849 25.07 20.2 68.4 49 9.3 48.8
04:15 1020 30.12 849 25.07 20.3 68.5 49 9.2 48.6
04:20 1020 30.12 849 25.07 20.2 68.4 49 9.3 48.7
04:25 1020 30.12 849 25.07 20.2 68.4 49 9.2 48.5
04:30 1020 30.12 849 25.07 20.1 68.2 50 9.5 49.1
04:35 1020 30.12 849 25.07 19.9 67.8 50 9.3 48.7
04:40 1020 30.12 849 25.07 19.9 67.8 51 9.6 49.2
04:45 1020 30.12 849 25.07 19.8 67.7 51 9.6 49.2
04:50 1020 30.12 849 25.07 19.5 67.1 53 9.8 49.6
04:55 1020 30.12 849 25.07 19.3 66.7 53 9.6 49.2
05:00 1020 30.12 849 25.07 19.4 66.9 52 9.3 48.8
05:05 1020 30.12 849 25.07 19.8 67.6 50 9.3 48.7
05:10 1020 30.12 849 25.07 19.9 67.7 50 9.2 48.5
05:15 1020 30.12 849 25.07 19.9 67.9 51 9.7 49.4
05:20 1020 30.12 849 25.07 19.7 67.4 52 9.7 49.5
05:25 1020 30.12 849 25.07 19.6 67.2 51 9.4 49
05:30 1020 30.12 849 25.07 19.8 67.7 53 10 49.9
05:35 1020 30.12 849 25.07 19.3 66.7 55 10.1 50.1
05:40 1020 30.12 849 25.07 19.2 66.5 54 9.7 49.4
05:45 1020 30.12 849 25.07 19.4 66.9 53 9.7 49.4
05:50 1020 30.12 849 25.07 19.6 67.2 52 9.6 49.2
05:55 1020 30.12 849 25.07 19.7 67.4 52 9.7 49.5
06:00 1020 30.12 849 25.07 19.7 67.4 51 9.5 49
06:05 1020 30.12 849 25.07 19.8 67.6 53 9.9 49.8
06:10 1020 30.12 849 25.07 19.7 67.5 53 10 50
06:15 1020 30.12 849 25.07 19.9 67.9 53 10.3 50.5
06:20 1020 30.12 849 25.07 19.8 67.6 56 10.9 51.6
06:25 1020 30.12 849 25.07 20 68 53 10.3 50.6
06:30 1020 30.12 849 25.07 20 68.1 52 10.1 50.1
06:35 1020 30.12 849 25.07 20.2 68.4 52 10.3 50.5
06:40 1020 30.12 849 25.07 20.8 69.4 49 9.9 49.7
06:45 1020 30.12 849 25.07 21.2 70.2 48 9.8 49.7
06:50 1020 30.12 849 25.07 21.4 70.5 49 10.5 50.9
06:55 1020 30.12 849 25.07 21.6 70.8 48 10.3 50.5
07:00 1020 30.12 849 25.07 21.9 71.5 47 10.1 50.3
07:05 1020 30.12 849 25.07 22.4 72.3 45 10.1 50.1
07:10 1020 30.12 849 25.07 22.4 72.3 45 10.1 50.1
07:15 1020 30.12 849 25.07 22.6 72.7 45 10.2 50.3
07:20 1020 30.12 849 25.07 23 73.3 44 10.4 50.6
07:25 1020 30.12 849 25.07 23.4 74.1 45 10.8 51.5
07:30 1020 30.12 849 25.07 23.8 74.8 43 10.6 51.2
07:35 1020 30.12 849 25.07 24.2 75.6 43 11 51.9
07:40 1020 30.12 849 25.07 24.5 76.1 41 10.5 51
07:45 1020 30.12 849 25.07 24.8 76.6 42 11.2 52.1
07:50 1020 30.12 849 25.07 24.9 76.9 41 10.9 51.7
07:55 1020 30.12 849 25.07 25.1 77.2 40 10.8 51.5
08:00 1020 30.12 849 25.07 25.7 78.2 39 10.8 51.5
08:05 1020 30.12 849 25.07 25.9 78.6 38 10.5 51
08:10 1020 30.12 849 25.07 26 78.8 38 10.7 51.2
08:15 1020 30.12 849 25.07 26.5 79.6 37 10.8 51.5
08:20 1020 30.12 849 25.07 26.9 80.4 37 11.2 52.1
08:25 1020 30.12 849 25.07 27.1 80.7 37 11.3 52.3
08:30 1019 30.09 849 25.07 27.5 81.5 36 11.5 52.7
08:35 1019 30.09 849 25.07 27.8 82.1 35 11.1 52
08:40 1019 30.09 849 25.07 27.9 82.3 34 10.9 51.7
08:45 1019 30.09 849 25.07 27.9 82.2 35 11.3 52.3
08:50 1019 30.09 849 25.07 27.7 81.9 34 10.9 51.6
08:55 1019 30.09 849 25.07 28.1 82.6 32 10.3 50.5
09:00 1019 30.09 848 25.04 29 84.1 32 10.8 51.5
09:05 1019 30.09 848 25.04 29.4 85 32 11.4 52.5
09:10 1019 30.09 848 25.04 28.9 84.1 33 11.2 52.2
09:15 1019 30.09 848 25.04 29.2 84.6 34 12 53.6
09:20 1019 30.09 848 25.04 29.2 84.5 36 12.7 54.9
09:25 1019 30.09 848 25.04 28.6 83.5 38 13.2 55.8
09:30 1019 30.09 848 25.04 28.3 83 39 13.2 55.8
09:35 1019 30.09 848 25.04 28.4 83 39 13.2 55.8
09:40 1019 30.09 848 25.04 28.8 83.9 36 12.4 54.3
09:45 1019 30.09 848 25.04 29.3 84.7 36 13.1 55.7
09:50 1019 30.09 848 25.04 29.6 85.4 33 11.9 53.4
09:55 1019 30.09 848 25.04 29.7 85.4 33 12 53.6
10:00 1019 30.09 848 25.04 29.7 85.5 34 12.4 54.2
10:05 1019 30.09 848 25.04 30 86 32 12 53.5
10:10 1018 30.06 848 25.04 30.5 86.8 31 11.9 53.4
10:15 1018 30.06 848 25.04 31 87.8 28 10.6 51
10:20 1018 30.06 848 25.04 30.6 87 29 11 51.7
10:25 1018 30.06 848 25.04 30.9 87.6 27 10.1 50.1
10:30 1018 30.06 848 25.04 31.4 88.6 27 10.4 50.7
10:35 1018 30.06 848 25.04 31.8 89.2 24 9.4 48.9
10:40 1018 30.06 848 25.04 31.8 89.3 25 9.8 49.6
10:45 1018 30.06 848 25.04 31.8 89.2 26 10.4 50.7
10:50 1018 30.06 847 25.01 31.9 89.5 26 10.4 50.7
10:55 1018 30.06 847 25.01 31.5 88.7 26 9.9 49.8
11:00 1018 30.06 847 25.01 32.2 89.9 26 10.6 51.2
11:05 1018 30.06 847 25.01 31.9 89.5 26 10.1 50.2
11:10 1018 30.06 847 25.01 32.6 90.6 24 9.7 49.5
11:15 1018 30.06 847 25.01 33 91.4 24 10.1 50.2
11:20 1018 30.06 847 25.01 32.8 91.1 23 9.1 48.4
11:25 1018 30.06 847 25.01 33.4 92 23 9.6 49.4
11:30 1018 30.06 847 25.01 33.3 91.9 25 10.9 51.6
11:35 1018 30.06 847 25.01 33.7 92.7 23 10 50.1
11:40 1018 30.06 847 25.01 33.7 92.7 24 10.7 51.3
11:45 1018 30.06 847 25.01 33.6 92.5 26 12 53.7
11:50 1018 30.06 847 25.01 33.2 91.8 30 13.5 56.4
11:55 1018 30.06 847 25.01 32.6 90.7 29 12.7 54.9
12:00 1018 30.06 847 25.01 32.2 90 29 12.4 54.2
12:05 1018 30.06 847 25.01 31.7 89 29 11.9 53.4
12:10 1018 30.06 847 25.01 31.5 88.6 28 11.3 52.4
12:15 1018 30.06 847 25.01 31.5 88.6 29 11.6 52.9
12:20 1018 30.06 847 25.01 31.8 89.2 29 11.6 52.9
12:25 1018 30.06 847 25.01 32 89.6 28 11.8 53.2
12:30 1018 30.06 847 25.01 32.3 90.2 28 12.1 53.7
12:35 1018 30.06 847 25.01 32.3 90.1 26 10.5 50.9
12:40 1018 30.06 847 25.01 32.1 89.8 27 11.3 52.3
12:45 1018 30.06 847 25.01 32.7 90.8 27 11.5 52.6
12:50 1018 30.06 847 25.01 33.3 92 25 11.3 52.4
12:55 1018 30.06 847 25.01 33.5 92.2 27 12.5 54.5
13:00 1018 30.06 847 25.01 33.4 92.1 27 12.2 54
13:05 1018 30.06 847 25.01 33.3 91.9 25 10.8 51.5
13:10 1018 30.06 847 25.01 33.4 92.2 24 10.4 50.7
13:15 1018 30.06 847 25.01 33.3 92 24 10.7 51.2
13:20 1018 30.06 847 25.01 33.4 92 23 9.8 49.6
13:25 1018 30.06 847 25.01 33.4 92.1 23 9.6 49.3
13:30 1018 30.06 847 25.01 33.3 92 24 10.5 50.9
13:35 1018 30.06 847 25.01 33.5 92.3 24 10.7 51.3
13:40 1018 30.06 847 25.01 33.9 93 24 10.8 51.4
13:45 1018 30.06 847 25.01 33.4 92.1 24 10.8 51.4
13:50 1017 30.03 847 25.01 33.4 92.1 22 9.2 48.6
13:55 1017 30.03 847 25.01 33.6 92.4 18 6.3 43.4
14:00 1017 30.03 847 25.01 34 93.3 17 6.3 43.3
14:05 1017 30.03 847 25.01 34.5 94 16 5.3 41.5
14:10 1017 30.03 847 25.01 34.9 94.8 14 4.2 39.6
14:15 1017 30.03 847 25.01 34.8 94.7 15 5.1 41.2
14:20 1017 30.03 846 24.98 35 95.1 15 5.4 41.8
14:25 1017 30.03 846 24.98 34.8 94.6 16 6 42.8
14:30 1017 30.03 846 24.98 34 93.2 17 5.6 42.1
14:35 1017 30.03 846 24.98 33.1 91.6 18 6.2 43.2
14:40 1017 30.03 846 24.98 32.6 90.7 20 7.1 44.8
14:45 1017 30.03 846 24.98 32.2 90 21 7.4 45.4
14:50 1017 30.03 846 24.98 31.8 89.3 21 7.5 45.6
14:55 1017 30.03 847 25.01 30.9 87.6 24 8.1 46.7
15:00 1018 30.06 847 25.01 29.3 84.8 27 8.6 47.5
15:05 1018 30.06 847 25.01 27.6 81.6 32 9.6 49.3
15:10 1018 30.06 847 25.01 26.8 80.3 31 8.4 47.1
15:15 1018 30.06 847 25.01 26.9 80.4 28 7.2 45
15:20 1018 30.06 847 25.01 27.1 80.8 29 7.6 45.7
15:25 1018 30.06 847 25.01 27 80.6 24 5.2 41.4
15:30 1018 30.06 847 25.01 25.9 78.6 32 8 46.4
15:35 1018 30.06 847 25.01 24 75.1 37 8.5 47.3
15:40 1018 30.06 847 25.01 23.2 73.7 40 9.1 48.4
15:45 1018 30.06 847 25.01 23.1 73.7 43 10.2 50.4
15:50 1018 30.06 847 25.01 23.7 74.7 41 9.7 49.5
15:55 1018 30.06 847 25.01 25.1 77.1 38 9.9 49.9
16:00 1018 30.06 847 25.01 26.2 79.1 32 8.5 47.4
16:05 1017 30.03 847 25.01 26.4 79.6 33 9.2 48.6
16:10 1017 30.03 847 25.01 25.9 78.6 34 9.2 48.6
16:15 1017 30.03 847 25.01 25.6 78.1 37 10 50
16:20 1017 30.03 847 25.01 25.6 78.1 38 10.4 50.7
16:25 1017 30.03 847 25.01 25.7 78.3 38 10.5 50.8
16:30 1017 30.03 847 25.01 26 78.7 38 10.7 51.3
16:35 1017 30.03 847 25.01 26.2 79.1 37 10.4 50.7
16:40 1017 30.03 847 25.01 26.6 79.9 36 10.6 51.1
16:45 1017 30.03 847 25.01 26.8 80.2 36 10.9 51.6
16:50 1017 30.03 847 25.01 26.6 79.9 36 10.6 51.1
16:55 1017 30.03 846 24.98 26.3 79.3 39 11.3 52.4
17:00 1017 30.03 846 24.98 26 78.8 38 10.9 51.7
17:05 1017 30.03 846 24.98 26.3 79.4 36 10.3 50.5
17:10 1017 30.03 846 24.98 27.1 80.7 37 11.6 52.9
17:15 1017 30.03 846 24.98 26.9 80.5 36 10.7 51.2
17:20 1017 30.03 846 24.98 27 80.6 34 10.1 50.2
17:25 1017 30.03 846 24.98 27.4 81.2 36 11 51.9
17:30 1017 30.03 846 24.98 27.1 80.7 35 10.8 51.4
17:35 1017 30.03 846 24.98 26.9 80.4 36 10.9 51.5
17:40 1017 30.03 846 24.98 26.8 80.3 36 10.8 51.4
17:45 1017 30.03 846 24.98 26.8 80.2 37 11.1 51.9
17:50 1017 30.03 846 24.98 26.8 80.3 35 10.3 50.5
17:55 1017 30.03 846 24.98 27.3 81.1 36 11.1 52
18:00 1017 30.03 846 24.98 27.4 81.3 34 10.4 50.7
18:05 1017 30.03 846 24.98 27.3 81.2 35 10.8 51.5
18:10 1017 30.03 846 24.98 27.3 81.2 34 10.2 50.4
18:15 1017 30.03 846 24.98 26.9 80.5 38 11.8 53.2
18:20 1017 30.03 846 24.98 26.9 80.4 35 10.4 50.8
18:25 1017 30.03 846 24.98 26.8 80.3 35 10.1 50.3
18:30 1017 30.03 846 24.98 27 80.5 33 9.4 48.9
18:35 1017 30.03 846 24.98 27.3 81.2 32 9.4 48.8
18:40 1017 30.03 846 24.98 27.7 81.8 32 9.5 49.2
18:45 1017 30.03 846 24.98 27.7 81.8 32 9.5 49.2
18:50 1017 30.03 846 24.98 27.6 81.7 33 10.2 50.4
18:55 1017 30.03 846 24.98 27.4 81.4 36 11.3 52.3
19:00 1017 30.03 846 24.98 27.1 80.7 32 9.3 48.7
19:05 1017 30.03 846 24.98 26.6 79.9 31 8.4 47
19:10 1017 30.03 847 25.01 26.2 79.2 32 8.4 47.2
19:15 1018 30.06 847 25.01 25.9 78.7 30 7.3 45.1
19:20 1018 30.06 847 25.01 25.7 78.2 31 7.5 45.4
19:25 1018 30.06 847 25.01 25.5 77.9 30 7 44.7
19:30 1018 30.06 847 25.01 25.3 77.5 31 7.2 44.9
19:35 1018 30.06 847 25.01 25.1 77.1 30 6.7 44
19:40 1018 30.06 848 25.04 25 77 30 6.5 43.7
19:45 1018 30.06 848 25.04 24.9 76.9 30 6.6 43.9
19:50 1018 30.06 848 25.04 24.9 76.7 30 6.2 43.2
19:55 1019 30.09 848 25.04 24.7 76.5 31 6.5 43.7
20:00 1019 30.09 848 25.04 24.5 76 33 7.3 45.2
20:05 1019 30.09 848 25.04 24 75.3 31 6 42.8
20:10 1019 30.09 848 25.04 23.8 74.8 31 6.1 42.9
20:15 1019 30.09 848 25.04 23.5 74.4 31 5.8 42.4
20:20 1019 30.09 848 25.04 23.3 73.9 32 5.7 42.2
20:25 1019 30.09 848 25.04 23.1 73.5 31 5.1 41.1
20:30 1019 30.09 849 25.07 23.1 73.6 29 4.4 39.9
20:35 1019 30.09 849 25.07 23.2 73.8 29 4.6 40.2
20:40 1020 30.12 849 25.07 23.4 74 29 4.5 40
20:45 1020 30.12 849 25.07 23.3 74 29 4.6 40.3
20:50 1020 30.12 849 25.07 23.3 74 29 4.5 40.1
20:55 1020 30.12 849 25.07 23.4 74.1 28 4.2 39.5
21:00 1020 30.12 849 25.07 23.3 73.9 28 4.2 39.5
21:05 1020 30.12 849 25.07 23.1 73.6 28 4 39.2
21:10 1020 30.12 849 25.07 23.2 73.8 28 4 39.1
21:15 1020 30.12 849 25.07 23 73.5 30 4.6 40.2
21:20 1020 30.12 850 25.1 22.5 72.6 31 4.7 40.5
21:25 1020 30.12 850 25.1 22.3 72.1 31 4.4 39.9
21:30 1021 30.15 850 25.1 22 71.6 31 4.3 39.7
21:35 1021 30.15 850 25.1 21.7 71.1 31 4.2 39.6
21:40 1021 30.15 850 25.1 21.6 70.9 31 3.8 38.9
21:45 1021 30.15 850 25.1 21.6 70.9 31 3.8 38.9
21:50 1021 30.15 850 25.1 21.6 70.8 31 3.7 38.7
21:55 1021 30.15 850 25.1 21.4 70.4 32 4 39.2
22:00 1021 30.15 850 25.1 21.1 70.1 31 3.7 38.6
22:05 1021 30.15 850 25.1 21 69.8 32 3.8 38.8
22:10 1021 30.15 850 25.1 20.8 69.4 32 3.5 38.4
22:15 1021 30.15 850 25.1 20.7 69.2 31 3.1 37.6
22:20 1021 30.15 850 25.1 20.7 69.2 30 2.6 36.8
22:25 1021 30.15 850 25.1 20.8 69.4 30 2.8 37.1
22:30 1021 30.15 850 25.1 20.7 69.2 31 3 37.4
22:35 1021 30.15 850 25.1 20.5 68.9 31 2.8 37
22:40 1021 30.15 850 25.1 20.4 68.7 31 2.8 37
22:45 1021 30.15 850 25.1 20.3 68.6 30 2.4 36.2
22:50 1021 30.15 850 25.1 20.4 68.7 30 2.3 36.1
22:55 1021 30.15 850 25.1 20.3 68.6 31 2.6 36.6
23:00 1021 30.15 851 25.13 20 68.1 31 2.5 36.5
23:05 1021 30.15 851 25.13 19.9 67.8 31 2.3 36.1
23:10 1021 30.15 851 25.13 19.8 67.7 30 2.1 35.8
23:15 1021 30.15 851 25.13 19.8 67.6 30 2.1 35.7
23:20 1021 30.15 851 25.13 19.7 67.4 30 1.9 35.5
23:25 1022 30.18 851 25.13 19.5 67.2 31 2.2 36
23:30 1022 30.18 851 25.13 19.3 66.7 32 2.5 36.5
23:35 1022 30.18 851 25.13 19.1 66.3 33 2.6 36.7
23:40 1022 30.18 851 25.13 18.8 65.9 33 2.5 36.4
23:45 1022 30.18 851 25.13 18.8 65.8 35 3 37.4
23:50 1022 30.18 851 25.13 18.7 65.7 35 3 37.4
23:55 1022 30.18 851 25.13 18.5 65.2 36 3.3 38
24:00 1022 30.18 851 25.13 18.2 64.8 36 3.2 37.7